Tiempo atmosférico en la estación meteorológica de Cartaya, Huelva (15 m.)

Fecha
DESCASC
Temp. máxima en grados centígrados (hora)
DESCASC
Temp. mínima en grados centígrados (hora)
DESCASC
Temp. media en grados centígrados
DESCASC
Racha de viento máxima en m/sg (hora)
DESCASC
Velocidad máxima media en intervalos de 10 minutos(hora)
DESCASC
Precipitaciones diarias en mm
DESCASC
Precipitaciones de 00:00 a 06:00 en mm
DESCASC
Precipitaciones de 06:00 a 12:00 en mm
DESCASC
Precipitaciones de 12:00 a 18:00 en mm
DESCASC
Precipitaciones de 18:00 a 24:00 en mm
DESCASC
17-09-2017 26.4 (13:40) 9 (08:40) 17.7 8.33 (16:30) 5.83 (16:50) 0 0 0 0 0
16-09-2017 26.3 (14:30) 12.4 (08:20) 19.3 10.28 (14:50) 6.67 (16:30) 0 0 0 0 0
15-09-2017 28.7 (17:00) 13.9 (08:30) 21.3 10.83 (17:40) 5.28 (03:10) 0 0 0 0 0
14-09-2017 31.9 (15:00) 14.8 (00:00) 23.3 10 (16:30) 6.39 (16:50) 0 0 0 0 0
13-09-2017 28.3 (18:00) 15.3 (00:00) 21.8 6.94 (18:50) 4.72 (17:40) 0 0 0 0 0
12-09-2017 37 (16:00) 18.7 (00:00) 27.9 8.33 (14:20) 4.44 (17:30) 0 0 0 0 0
11-09-2017 30 (14:50) 13.2 (00:00) 21.6 8.89 (18:00) 5.56 (18:00) 0 0 0 0 0
10-09-2017 28 (15:20) 13.9 (00:00) 20.9 9.72 (17:10) 6.39 (17:10) 0 0 0 0 0
09-09-2017 30 (17:00) 15.7 (00:00) 22.8 13.89 (18:50) 5.83 (18:50) 0 0 0 0 0
08-09-2017 29.4 (13:10) 14.1 (00:00) 21.8 10.56 (18:50) 5.83 (18:50) 0 0 0 0 0
07-09-2017 29.8 (12:40) 17 (00:00) 23.4 6.67 (18:20) 4.72 (16:40) 0 0 0 0 0
06-09-2017 30.8 (14:20) 16.6 (00:00) 23.7 7.78 (19:30) 5.28 (18:30) 0 0 0 0 0
05-09-2017 29.2 (12:50) 18.1 (00:00) 23.7 9.72 (04:50) 4.72 (01:10) 0 0 0 0 0
04-09-2017 32.9 (15:50) 18 (00:00) 25.5 10.56 (13:00) 6.94 (16:00) 0 0 0 0 0
03-09-2017 30 (12:30) 18.5 (00:00) 24.3 9.17 (18:50) 5.56 (16:50) 0 0 0 0 0
02-09-2017 31.3 (13:00) 17.7 (00:00) 24.5 6.67 (17:10) 4.44 (17:10) 0 0 0 0 0
01-09-2017 30.6 (16:00) 17.9 (00:00) 24.3 8.89 (19:00) 5.28 (18:20) 0 0 0 0 0
31-08-2017 31.2 (18:00) 17.8 (00:00) 24.5 8.89 (19:50) 5.56 (19:20) 0 0 0 0 0
30-08-2017 26.3 (16:50) 16.3 (00:00) 21.3 8.61 (19:40) 5.56 (19:10) 0.2 0.2 0 0 0
29-08-2017 25.3 (13:30) 16.3 (00:00) 20.8 9.17 (15:50) 6.11 (15:40) 0 0 0 0 0
28-08-2017 25.3 (14:20) 14.9 (00:00) 20.1 10.28 (20:00) 6.11 (20:00) 0 0 0 0 0
27-08-2017 28.6 (14:00) 21.4 (00:00) 25 8.89 (18:10) 5.56 (18:10) 0 0 0 0 0
26-08-2017 31.4 (16:20) 17.6 (00:00) 24.5 11.67 (18:50) 6.67 (18:50) 0 0 0 0 0
25-08-2017 29.4 (16:00) 16.6 (00:00) 23 6.11 (18:40) 3.89 (18:50) 0 0 0 0 0
24-08-2017 30.8 (14:20) 17.3 (00:00) 24 7.5 (16:50) 5 (16:50) 0 0 0 0 0
23-08-2017 30.5 (14:30) 18.2 (00:00) 24.4 8.06 (16:50) 5.56 (17:00) 0 0 0 0 0
22-08-2017 30.3 (15:40) 17.7 (00:00) 24 7.78 (17:30) 5 (17:40) 0 0 0 0 0

Gráficas

Temp. máximas Temp. mínimas Temp. medias Precipitaciones Rachas de viento máximas Velocidades máximas media en intervalos de 10 minutos

Datos horarios

Fecha y hora oficial Temperatura (ºC) Velocidad del viento (km/h) Dirección del viento Racha (km/h) Dirección de racha Precipitación (mm) Presión (hPa) Tendencia (hPa) Humedad (%)
2017-09-20 23:00:00 -- -- -- -- -- -- -- -- --
2017-09-20 22:00:00 19.6 6 Oeste 9 Oeste 0 -- -- 84
2017-09-20 21:00:00 20.9 2 Oeste 14 Noroeste 0 -- -- 74
2017-09-20 20:00:00 23.3 9 Noroeste 18 Oeste 0 -- -- 59
2017-09-20 19:00:00 25.2 12 Oeste 21 Oeste 0 -- -- 53
2017-09-20 18:00:00 24.2 12 Oeste 18 Oeste 0 -- -- 61
2017-09-20 17:00:00 24.9 12 Oeste 20 Oeste 0 -- -- 63
2017-09-20 16:00:00 23.8 8 Oeste 13 Oeste 0 -- -- 67
2017-09-20 15:00:00 24.5 8 Sudoeste 13 Sudoeste 0 -- -- 63
2017-09-20 14:00:00 23.8 8 Sudoeste 17 Sur 0 -- -- 64
2017-09-20 13:00:00 23.3 12 Sur 16 Sur 0 -- -- 63
2017-09-20 12:00:00 22.9 6 Sudoeste 12 Sur 0 -- -- 63
2017-09-20 11:00:00 20.8 5 Este 13 Este 0 -- -- 67
2017-09-20 10:00:00 17.5 8 Este 14 Este 0 -- -- 74
2017-09-20 09:00:00 13.7 8 Nordeste 12 Nordeste 0 -- -- 91
2017-09-20 08:00:00 11.7 8 Nordeste 11 Nordeste 0 -- -- 96
2017-09-20 07:00:00 11.8 2 Este 3 Este 0 -- -- 92
2017-09-20 06:00:00 13.8 0 Calma 13 Nordeste 0 -- -- 89
2017-09-20 05:00:00 12 6 Nordeste 9 Nordeste 0 -- -- 91
2017-09-20 04:00:00 13.8 3 Este 6 Nordeste 0 -- -- 88
2017-09-20 03:00:00 13.7 4 Nordeste 6 Nordeste 0 -- -- 85
2017-09-20 02:00:00 14.8 0 Calma 6 Norte 0 -- -- 85
2017-09-20 01:00:00 16.4 2 Noroeste 11 Noroeste 0 -- -- 80
2017-09-20 00:00:00 15.3 5 Noroeste 9 Norte 0 -- -- 88
2017-09-19 23:00:00 16.8 3 Noroeste 7 Oeste 0 -- -- 81
2017-09-19 22:00:00 19.5 6 Oeste 15 Oeste 0 -- -- 80
2017-09-19 21:00:00 20 9 Oeste 23 Oeste 0 -- -- 75
2017-09-19 20:00:00 21.4 14 Noroeste 27 Oeste 0 -- -- 64
2017-09-19 19:00:00 21.8 16 Oeste 28 Oeste 0 -- -- 64
2017-09-19 18:00:00 22.3 17 Oeste 26 Oeste 0 -- -- 70
2017-09-19 17:00:00 22.8 15 Oeste 24 Oeste 0 -- -- 72
2017-09-19 16:00:00 24.1 15 Oeste 22 Oeste 0 -- -- 69
2017-09-19 15:00:00 26.4 10 Sudoeste 21 Sudoeste 0 -- -- 52
2017-09-19 14:00:00 26.4 12 Oeste 22 Oeste 0 -- -- 50
2017-09-19 13:00:00 26.8 10 Noroeste 19 Noroeste 0 -- -- 48
2017-09-19 12:00:00 23.9 6 Nordeste 19 Nordeste 0 -- -- 54
2017-09-19 11:00:00 20.8 10 Norte 19 Nordeste 0 -- -- 66
2017-09-19 10:00:00 17.7 11 Norte 19 Norte 0 -- -- 77
2017-09-19 09:00:00 14.9 0 Calma 17 Nordeste 0 -- -- 86
2017-09-19 08:00:00 14.9 9 Norte 17 Norte 0 -- -- 85
2017-09-19 07:00:00 15.2 6 Norte 12 Norte 0 -- -- 83
2017-09-19 06:00:00 16.1 5 Norte 16 Norte 0 -- -- 80
2017-09-19 05:00:00 16.6 9 Norte 18 Nordeste 0 -- -- 78
2017-09-19 04:00:00 17 8 Norte 19 Norte 0 -- -- 75
2017-09-19 03:00:00 17.8 11 Norte 20 Norte 0 -- -- 71
2017-09-19 02:00:00 18.2 8 Norte 21 Norte 0 -- -- 66
2017-09-19 01:00:00 19.1 11 Norte 25 Norte 0 -- -- 62
2017-09-19 00:00:00 20 12 Norte 27 Norte 0 -- -- 62
2017-09-18 23:00:00 21.2 11 Norte 26 Norte 0 -- -- 66
2017-09-18 22:00:00 22.1 10 Norte 18 Norte 0 -- -- 65
2017-09-18 21:00:00 23 8 Noroeste 23 Noroeste 0 -- -- 62
2017-09-18 20:00:00 25 13 Norte 30 Noroeste 0 -- -- 55
2017-09-18 19:00:00 22.6 17 Oeste 33 Oeste 0 -- -- 72
2017-09-18 18:00:00 22.9 22 Oeste 34 Oeste 0 -- -- 68
2017-09-18 17:00:00 22.4 20 Oeste 35 Oeste 0 -- -- 70
2017-09-18 16:00:00 22.9 20 Oeste 34 Oeste 0 -- -- 66
2017-09-18 15:00:00 28.8 13 Norte 35 Norte 0 -- -- 41
2017-09-18 14:00:00 27.5 13 Norte 31 Nordeste 0 -- -- 43
2017-09-18 13:00:00 25.1 15 Norte 32 Norte 0 -- -- 48
2017-09-18 12:00:00 22.4 14 Nordeste 32 Norte 0 -- -- 52
2017-09-18 11:00:00 19.7 15 Norte 30 Norte 0 -- -- 62
2017-09-18 10:00:00 16.5 14 Norte 27 Norte 0 -- -- 71
2017-09-18 09:00:00 13.2 3 Norte 15 Norte 0 -- -- 80
2017-09-18 08:00:00 12.9 9 Norte 22 Nordeste 0 -- -- 77
2017-09-18 07:00:00 13.3 10 Norte 21 Nordeste 0 -- -- 73
2017-09-18 06:00:00 14 9 Norte 23 Norte 0 -- -- 70
2017-09-18 05:00:00 15 15 Norte 27 Norte 0 -- -- 66
2017-09-18 04:00:00 15.8 13 Norte 28 Norte 0 -- -- 64
2017-09-18 03:00:00 16.4 12 Norte 25 Noroeste 0 -- -- 62
2017-09-18 02:00:00 16.9 10 Norte 21 Norte 0 -- -- 60
2017-09-18 01:00:00 17.7 12 Norte 21 Norte 0 -- -- 59
2017-09-18 00:00:00 17.4 9 Norte 17 Norte 0 -- -- 58
2017-09-17 23:00:00 17.4 4 Noroeste 18 Noroeste 0 -- -- 64
2017-09-17 22:00:00 18.8 8 Noroeste 16 Noroeste 0 -- -- 67
2017-09-17 21:00:00 19.1 6 Oeste 19 Oeste 0 -- -- 71
2017-09-17 20:00:00 20 10 Oeste 25 Oeste 0 -- -- 71
2017-09-17 19:00:00 21.4 15 Oeste 27 Oeste 0 -- -- 63
2017-09-17 18:00:00 22.1 17 Oeste 29 Oeste 0 -- -- 63
2017-09-17 17:00:00 22.4 18 Oeste 30 Oeste 0 -- -- 63
2017-09-17 16:00:00 22.8 18 Oeste 27 Oeste 0 -- -- 53
2017-09-17 15:00:00 25 13 Oeste 24 Oeste 0 -- -- 43
2017-09-17 14:00:00 26.2 17 Oeste 27 Oeste 0 -- -- 38
2017-09-17 13:00:00 25.1 8 Sudoeste 15 Sur 0 -- -- 39
2017-09-17 12:00:00 22.3 5 Nordeste 15 Norte 0 -- -- 43
2017-09-17 11:00:00 18.9 9 Nordeste 17 Nordeste 0 -- -- 51
2017-09-17 10:00:00 15.3 8 Nordeste 15 Norte 0 -- -- 61
2017-09-17 09:00:00 9.5 5 Nordeste 9 Nordeste 0 -- -- 78
2017-09-17 08:00:00 10.7 0 Calma 9 Nordeste 0 -- -- 72
2017-09-17 07:00:00 12.8 6 Nordeste 22 Nordeste 0 -- -- 65
2017-09-17 06:00:00 13.6 11 Norte 22 Norte 0 -- -- 62
2017-09-17 05:00:00 14.4 12 Norte 23 Norte 0 -- -- 58
2017-09-17 04:00:00 15.2 11 Norte 23 Norte 0 -- -- 54
2017-09-17 03:00:00 16.2 10 Norte 24 Norte 0 -- -- 51
2017-09-17 02:00:00 17.4 12 Norte 26 Norte 0 -- -- 49
2017-09-17 01:00:00 18.1 11 Norte 25 Norte 0 -- -- 50
2017-09-17 00:00:00 17.8 10 Norte 18 Norte 0 -- -- 54
2017-09-16 23:00:00 19.6 8 Noroeste 22 Noroeste 0 -- -- 54
2017-09-16 22:00:00 19.7 12 Noroeste 21 Noroeste 0 -- -- 58
2017-09-16 21:00:00 20 11 Noroeste 23 Oeste 0 -- -- 60
2017-09-16 20:00:00 21 14 Noroeste 28 Noroeste 0 -- -- 59
2017-09-16 19:00:00 21.8 15 Oeste 30 Noroeste 0 -- -- 63
2017-09-16 18:00:00 22.2 18 Oeste 31 Oeste 0 -- -- 63
2017-09-16 17:00:00 22.3 19 Oeste 33 Oeste 0 -- -- 58
2017-09-16 16:00:00 22.1 21 Oeste 34 Oeste 0 -- -- 62
2017-09-16 15:00:00 23.4 21 Oeste 37 Oeste 0 -- -- 57
2017-09-16 14:00:00 26.1 13 Noroeste 26 Oeste 0 -- -- 31
2017-09-16 13:00:00 24.6 10 Noroeste 25 Noroeste 0 -- -- 37
2017-09-16 12:00:00 21.9 12 Norte 23 Norte 0 -- -- 43
2017-09-16 11:00:00 18.8 11 Norte 25 Norte 0 -- -- 56
2017-09-16 10:00:00 15.6 12 Norte 28 Norte 0 -- -- 68
2017-09-16 09:00:00 12.9 14 Norte 28 Norte 0 -- -- 78
2017-09-16 08:00:00 12.5 14 Norte 26 Norte 0 -- -- 78
2017-09-16 07:00:00 12.8 11 Norte 26 Norte 0 -- -- 75
2017-09-16 06:00:00 13.4 12 Norte 28 Norte 0 -- -- 72
2017-09-16 05:00:00 14 13 Norte 28 Norte 0 -- -- 69
2017-09-16 04:00:00 14.7 14 Norte 31 Norte 0 -- -- 65
2017-09-16 03:00:00 15.6 14 Norte 29 Norte 0 -- -- 59
2017-09-16 02:00:00 16.8 12 Norte 28 Norte 0 -- -- 53
2017-09-16 01:00:00 18 14 Norte 30 Norte 0 -- -- 50
2017-09-16 00:00:00 19.3 15 Norte 37 Norte 0 -- -- 47
2017-09-15 23:00:00 20.6 16 Norte 31 Norte 0 -- -- 41
2017-09-15 22:00:00 21.4 13 Norte 26 Noroeste 0 -- -- 35
2017-09-15 21:00:00 23.1 9 Norte 23 Norte 0 -- -- 27
2017-09-15 20:00:00 26 9 Norte 29 Norte 0 -- -- 26
2017-09-15 19:00:00 27.7 15 Norte 34 Norte 0 -- -- 25
2017-09-15 18:00:00 28.5 15 Noroeste 39 Noroeste 0 -- -- 25
2017-09-15 17:00:00 28.7 14 Noroeste 33 Noroeste 0 -- -- 27
2017-09-15 16:00:00 27.8 16 Norte 33 Norte 0 -- -- 28
2017-09-15 15:00:00 27.1 14 Norte 35 Norte 0 -- -- 31
2017-09-15 14:00:00 25.4 16 Norte 31 Norte 0 -- -- 35
2017-09-15 13:00:00 22.9 14 Noroeste 32 Noroeste 0 -- -- 43
2017-09-15 12:00:00 20.7 14 Norte 30 Norte 0 -- -- 50
2017-09-15 11:00:00 18.3 17 Norte 31 Norte 0 -- -- 58
2017-09-15 10:00:00 16.2 10 Norte 26 Norte 0 -- -- 67
2017-09-15 09:00:00 14.4 12 Norte 24 Norte 0 -- -- 75
2017-09-15 08:00:00 14.2 8 Norte 23 Norte 0 -- -- 75
2017-09-15 07:00:00 14.9 11 Norte 29 Norte 0 -- -- 73
2017-09-15 06:00:00 16 12 Norte 35 Norte 0 -- -- 67
2017-09-15 05:00:00 17.2 18 Norte 37 Norte 0 -- -- 59
2017-09-15 04:00:00 18.6 17 Norte 35 Norte 0 -- -- 54
2017-09-15 03:00:00 20.1 17 Norte 35 Nordeste 0 -- -- 52
2017-09-15 02:00:00 21.2 11 Norte 29 Noroeste 0 -- -- 51
2017-09-15 01:00:00 22.7 12 Norte 27 Norte 0 -- -- 60
2017-09-15 00:00:00 22.9 10 Norte 18 Norte 0 -- -- 67
2017-09-14 23:00:00 22.5 10 Noroeste 17 Norte 0 -- -- 62
2017-09-14 22:00:00 21.5 5 Oeste 10 Oeste 0 -- -- 72
2017-09-14 21:00:00 24.3 6 Oeste 13 Noroeste 0 -- -- 61
2017-09-14 20:00:00 26.2 8 Norte 22 Oeste 0 -- -- 49
2017-09-14 19:00:00 24.6 14 Noroeste 27 Oeste 0 -- -- 61
2017-09-14 18:00:00 24.8 19 Oeste 33 Oeste 0 -- -- 62
2017-09-14 17:00:00 24.3 20 Oeste 36 Oeste 0 -- -- 66
2017-09-14 16:00:00 25.2 18 Oeste 32 Oeste 0 -- -- 61
2017-09-14 15:00:00 31.9 10 Norte 27 Noroeste 0 -- -- 31
2017-09-14 14:00:00 30.5 12 Noroeste 28 Noroeste 0 -- -- 37
2017-09-14 13:00:00 28.2 9 Norte 22 Norte 0 -- -- 44
2017-09-14 12:00:00 25.8 9 Norte 21 Norte 0 -- -- 53
2017-09-14 11:00:00 22.5 13 Norte 23 Norte 0 -- -- 62
2017-09-14 10:00:00 19.9 14 Norte 27 Norte 0 -- -- 70
2017-09-14 09:00:00 17.4 12 Norte 24 Norte 0 -- -- 80
2017-09-14 08:00:00 16.5 9 Norte 17 Norte 0 -- -- 82
2017-09-14 07:00:00 17.1 9 Norte 17 Norte 0 -- -- 81
2017-09-14 06:00:00 17.2 7 Norte 14 Norte 0 -- -- 82
2017-09-14 05:00:00 15.9 6 Norte 12 Nordeste 0 -- -- 87
2017-09-14 04:00:00 15.5 0 Calma 5 Este 0 -- -- 87
2017-09-14 03:00:00 17.5 3 Nordeste 8 Norte 0 -- -- 83
2017-09-14 02:00:00 17.9 6 Norte 10 Noroeste 0 -- -- 90
2017-09-14 01:00:00 20.9 3 Noroeste 11 Oeste 0 -- -- 88
2017-09-14 00:00:00 21.8 8 Oeste 16 Oeste 0 -- -- 84
2017-09-13 23:00:00 22.3 9 Oeste 19 Oeste 0 -- -- 84
2017-09-13 22:00:00 23.2 11 Noroeste 21 Noroeste 0 -- -- 76
2017-09-13 21:00:00 23.4 12 Noroeste 21 Oeste 0 -- -- 77
2017-09-13 20:00:00 25.1 14 Noroeste 25 Oeste 0 -- -- 69
2017-09-13 19:00:00 26.5 16 Oeste 25 Noroeste 0 -- -- 66
2017-09-13 18:00:00 28.3 13 Oeste 24 Oeste 0 -- -- 52
2017-09-13 17:00:00 27.5 16 Oeste 24 Noroeste 0 -- -- 60
2017-09-13 16:00:00 27.4 16 Oeste 22 Oeste 0 -- -- 61
2017-09-13 15:00:00 27.8 12 Oeste 18 Oeste 0 -- -- 59
2017-09-13 14:00:00 27.2 10 Oeste 17 Oeste 0 -- -- 60
2017-09-13 13:00:00 26.7 10 Oeste 16 Oeste 0 -- -- 59
2017-09-13 12:00:00 26.6 9 Oeste 13 Oeste 0 -- -- 59
2017-09-13 11:00:00 25 5 Sudoeste 10 Nordeste 0 -- -- 57
2017-09-13 10:00:00 21.8 6 Nordeste 10 Norte 0 -- -- 63
2017-09-13 09:00:00 15.6 2 Norte 7 Nordeste 0 -- -- 78
2017-09-13 08:00:00 15.4 6 Nordeste 10 Norte 0 -- -- 79
2017-09-13 07:00:00 16.2 4 Norte 6 Norte 0 -- -- 71
2017-09-13 06:00:00 19.5 4 Sudeste 14 Nordeste 0 -- -- 63
2017-09-13 05:00:00 20.6 9 Nordeste 16 Norte 0 -- -- 58
2017-09-13 04:00:00 22 9 Norte 18 Norte 0 -- -- 52
2017-09-13 03:00:00 22.6 10 Norte 17 Nordeste 0 -- -- 47
2017-09-13 02:00:00 24.2 8 Nordeste 18 Norte 0 -- -- 40
2017-09-13 01:00:00 25.4 8 Nordeste 18 Nordeste 0 -- -- 36
2017-09-13 00:00:00 25.7 10 Nordeste 17 Nordeste 0 -- -- 35
2017-09-12 23:00:00 25.8 7 Nordeste 18 Norte 0 -- -- 33
2017-09-12 22:00:00 28.2 9 Norte 17 Norte 0 -- -- 29
2017-09-12 21:00:00 30.6 8 Norte 23 Norte 0 -- -- 26
2017-09-12 20:00:00 34.1 12 Norte 30 Norte 0 -- -- 22
2017-09-12 19:00:00 36 14 Norte 27 Norte 0 -- -- 20
2017-09-12 18:00:00 36.9 14 Norte 29 Norte 0 -- -- 20
2017-09-12 17:00:00 37 13 Norte 30 Norte 0 -- -- 21
2017-09-12 16:00:00 37 12 Norte 27 Norte 0 -- -- 22
2017-09-12 15:00:00 35.5 10 Nordeste 30 Nordeste 0 -- -- 24
2017-09-12 14:00:00 34.2 12 Nordeste 26 Nordeste 0 -- -- 26
2017-09-12 13:00:00 32.5 11 Norte 28 Norte 0 -- -- 31
2017-09-12 12:00:00 30.2 11 Norte 22 Norte 0 -- -- 34
2017-09-12 11:00:00 26.2 12 Nordeste 27 Norte 0 -- -- 42
2017-09-12 10:00:00 23 11 Nordeste 24 Nordeste 0 -- -- 51
2017-09-12 09:00:00 19.9 11 Norte 21 Nordeste 0 -- -- 60
2017-09-12 08:00:00 19.1 10 Norte 22 Norte 0 -- -- 62
2017-09-12 07:00:00 20.2 12 Norte 24 Norte 0 -- -- 59
2017-09-12 06:00:00 20.8 12 Norte 26 Nordeste 0 -- -- 58
2017-09-12 05:00:00 21.8 10 Norte 24 Nordeste 0 -- -- 56
2017-09-12 04:00:00 23.2 12 Norte 25 Norte 0 -- -- 53
2017-09-12 03:00:00 24.4 13 Norte 26 Norte 0 -- -- 50
2017-09-12 02:00:00 24.9 10 Nordeste 18 Nordeste 0 -- -- 48
2017-09-12 01:00:00 25 9 Nordeste 18 Norte 0 -- -- 47
2017-09-12 00:00:00 18.7 8 Nordeste 12 Norte 0 -- -- 58
2017-09-11 23:00:00 19.3 4 Noroeste 6 Noroeste 0 -- -- 60
2017-09-11 22:00:00 22.1 4 Norte 15 Oeste 0 -- -- 55
2017-09-11 21:00:00 24.2 7 Noroeste 24 Noroeste 0 -- -- 47
2017-09-11 20:00:00 25.1 15 Oeste 29 Oeste 0 -- -- 52
2017-09-11 19:00:00 26.3 18 Oeste 31 Noroeste 0 -- -- 51
2017-09-11 18:00:00 27 20 Oeste 32 Oeste 0 -- -- 52
2017-09-11 17:00:00 29.3 13 Oeste 21 Oeste 0 -- -- 37
2017-09-11 16:00:00 29.8 13 Oeste 23 Oeste 0 -- -- 37
2017-09-11 15:00:00 29.7 13 Oeste 19 Oeste 0 -- -- 34
2017-09-11 14:00:00 29.7 11 Oeste 17 Oeste 0 -- -- 30
2017-09-11 13:00:00 28.6 9 Sudoeste 16 Sur 0 -- -- 38
2017-09-11 12:00:00 27.6 5 Sudoeste 13 Sur 0 -- -- 40
2017-09-11 11:00:00 25.4 4 Nordeste 13 Nordeste 0 -- -- 37
2017-09-11 10:00:00 20.8 6 Nordeste 15 Nordeste 0 -- -- 51
2017-09-11 09:00:00 15.5 3 Sudeste 12 Norte 0 -- -- 69
2017-09-11 08:00:00 14.6 8 Nordeste 13 Nordeste 0 -- -- 71
2017-09-11 07:00:00 13.8 8 Nordeste 13 Nordeste 0 -- -- 71
2017-09-11 06:00:00 13.7 6 Nordeste 12 Nordeste 0 -- -- 68
2017-09-11 05:00:00 14.5 6 Nordeste 12 Nordeste 0 -- -- 62
2017-09-11 04:00:00 14.4 6 Norte 11 Norte 0 -- -- 60
2017-09-11 03:00:00 14.7 6 Nordeste 10 Nordeste 0 -- -- 57
2017-09-11 02:00:00 15.3 7 Nordeste 11 Nordeste 0 -- -- 55
2017-09-11 01:00:00 15.8 7 Nordeste 10 Nordeste 0 -- -- 65
2017-09-11 00:00:00 16.2 7 Nordeste 10 Nordeste 0 -- -- 67
2017-09-10 23:00:00 17.8 3 Noroeste 9 Noroeste 0 -- -- 77
2017-09-10 22:00:00 20.2 6 Noroeste 14 Noroeste 0 -- -- 72
2017-09-10 21:00:00 20.9 8 Noroeste 31 Noroeste 0 -- -- 70
2017-09-10 20:00:00 22 21 Oeste 32 Oeste 0 -- -- 70
2017-09-10 19:00:00 22.7 17 Oeste 31 Oeste 0 -- -- 67
2017-09-10 18:00:00 23.1 20 Oeste 35 Oeste 0 -- -- 63
2017-09-10 17:00:00 23.9 22 Oeste 34 Oeste 0 -- -- 61
2017-09-10 16:00:00 26.3 13 Sudoeste 22 Sudoeste 0 -- -- 49
2017-09-10 15:00:00 27.6 9 Norte 25 Norte 0 -- -- 31
2017-09-10 14:00:00 25.9 13 Norte 28 Norte 0 -- -- 36
2017-09-10 13:00:00 23.9 6 Noroeste 23 Norte 0 -- -- 43
2017-09-10 12:00:00 22 12 Norte 22 Nordeste 0 -- -- 48
2017-09-10 11:00:00 19.7 8 Nordeste 25 Norte 0 -- -- 56
2017-09-10 10:00:00 17.2 12 Norte 28 Nordeste 0 -- -- 67
2017-09-10 09:00:00 14.5 8 Norte 19 Norte 0 -- -- 78
2017-09-10 08:00:00 14 8 Norte 18 Norte 0 -- -- 78
2017-09-10 07:00:00 14 4 Norte 10 Norte 0 -- -- 77
2017-09-10 06:00:00 15.2 4 Norte 21 Norte 0 -- -- 72
2017-09-10 05:00:00 16.1 10 Norte 26 Norte 0 -- -- 68
2017-09-10 04:00:00 17.1 15 Norte 33 Nordeste 0 -- -- 64
2017-09-10 03:00:00 17.6 14 Norte 31 Norte 0 -- -- 62
2017-09-10 02:00:00 18.6 5 Noroeste 32 Norte 0 -- -- 59
2017-09-10 01:00:00 19.4 10 Norte 30 Norte 0 -- -- 57
2017-09-10 00:00:00 20.6 14 Norte 42 Norte 0 -- -- 52
2017-09-09 23:00:00 21.7 13 Norte 33 Norte 0 -- -- 48
2017-09-09 22:00:00 22.9 12 Noroeste 32 Norte 0 -- -- 49
2017-09-09 21:00:00 24.6 15 Norte 34 Nordeste 0 -- -- 43
2017-09-09 20:00:00 27 17 Norte 38 Norte 0 -- -- 39
2017-09-09 19:00:00 28.9 16 Norte 50 Norte 0 -- -- 39
2017-09-09 18:00:00 29.8 19 Noroeste 34 Norte 0 -- -- 38
2017-09-09 17:00:00 30 17 Noroeste 36 Noroeste 0 -- -- 38
2017-09-09 16:00:00 28.7 18 Norte 34 Noroeste 0 -- -- 40
2017-09-09 15:00:00 28.1 15 Norte 30 Nordeste 0 -- -- 43
2017-09-09 14:00:00 25.9 14 Norte 33 Norte 0 -- -- 52
2017-09-09 13:00:00 23.2 13 Norte 37 Nordeste 0 -- -- 61
2017-09-09 12:00:00 22.4 17 Norte 35 Norte 0 -- -- 64
2017-09-09 11:00:00 21.8 13 Norte 32 Norte 0 -- -- 66
2017-09-09 10:00:00 19.5 15 Norte 31 Norte 0 -- -- 74
2017-09-09 09:00:00 16.8 13 Norte 32 Norte 0 -- -- 85
2017-09-09 08:00:00 16 10 Norte 25 Norte 0 -- -- 87
2017-09-09 07:00:00 15.7 10 Norte 30 Norte 0 -- -- 85
2017-09-09 06:00:00 16 12 Norte 26 Norte 0 -- -- 81
2017-09-09 05:00:00 16.5 11 Norte 23 Norte 0 -- -- 73
2017-09-09 04:00:00 17.6 10 Nordeste 24 Norte 0 -- -- 64
2017-09-09 03:00:00 18.8 10 Nordeste 23 Norte 0 -- -- 58
2017-09-09 02:00:00 20.6 10 Norte 25 Norte 0 -- -- 50
2017-09-09 01:00:00 21.7 8 Norte 21 Norte 0 -- -- 45
2017-09-09 00:00:00 23.7 10 Norte 26 Norte 0 -- -- 39
2017-09-08 23:00:00 23 14 Norte 29 Norte 0 -- -- 47
2017-09-08 22:00:00 21.7 5 Norte 19 Oeste 0 -- -- 78
2017-09-08 21:00:00 23.8 11 Noroeste 27 Noroeste 0 -- -- 78
2017-09-08 20:00:00 24.8 18 Oeste 33 Noroeste 0 -- -- 77
2017-09-08 19:00:00 26.3 19 Noroeste 38 Noroeste 0 -- -- 72
2017-09-08 18:00:00 26.9 17 Oeste 28 Noroeste 0 -- -- 68
2017-09-08 17:00:00 27.1 17 Oeste 24 Oeste 0 -- -- 65
2017-09-08 16:00:00 27.6 12 Oeste 20 Oeste 0 -- -- 59
2017-09-08 15:00:00 28.5 10 Sudoeste 18 Sudoeste 0 -- -- 59
2017-09-08 14:00:00 28.8 10 Sur 15 Sur 0 -- -- 50
2017-09-08 13:00:00 29.3 7 Sudoeste 14 Sur 0 -- -- 43
2017-09-08 12:00:00 26.8 6 Sudoeste 10 Sudoeste 0 -- -- 48
2017-09-08 11:00:00 24.1 5 Norte 10 Nordeste 0 -- -- 44
2017-09-08 10:00:00 19.1 5 Nordeste 9 Nordeste 0 -- -- 87
2017-09-08 09:00:00 14.7 6 Nordeste 8 Nordeste 0 -- -- 99
2017-09-08 08:00:00 14.5 5 Nordeste 9 Este 0 -- -- 98
2017-09-08 07:00:00 14.9 5 Nordeste 8 Nordeste 0 -- -- 98
2017-09-08 06:00:00 15.3 3 Este 5 Nordeste 0 -- -- 96
2017-09-08 05:00:00 16.8 0 Calma 5 Norte 0 -- -- 97
2017-09-08 04:00:00 18 4 Nordeste 8 Nordeste 0 -- -- 97
2017-09-08 03:00:00 18.2 5 Nordeste 7 Nordeste 0 -- -- 96
2017-09-08 02:00:00 19 4 Nordeste 5 Nordeste 0 -- -- 94
2017-09-08 01:00:00 22.7 4 Oeste 13 Oeste 0 -- -- 86
2017-09-08 00:00:00 23.4 10 Oeste 18 Oeste 0 -- -- 88
2017-09-07 23:00:00 23.5 6 Oeste 14 Oeste 0 -- -- 90
2017-09-07 22:00:00 23.7 9 Oeste 14 Oeste 0 -- -- 89
2017-09-07 21:00:00 24.2 8 Noroeste 16 Oeste 0 -- -- 86
2017-09-07 20:00:00 25.7 12 Noroeste 23 Oeste 0 -- -- 78
2017-09-07 19:00:00 26.8 15 Oeste 24 Oeste 0 -- -- 71
2017-09-07 18:00:00 28.2 12 Oeste 23 Oeste 0 -- -- 63
2017-09-07 17:00:00 28.7 17 Oeste 23 Oeste 0 -- -- 58
2017-09-07 16:00:00 28.8 15 Oeste 21 Oeste 0 -- -- 58
2017-09-07 15:00:00 29.1 9 Sudoeste 15 Sudoeste 0 -- -- 56
2017-09-07 14:00:00 28.9 9 Sudoeste 18 Sudoeste 0 -- -- 52
2017-09-07 13:00:00 29.4 9 Sudoeste 16 Sudoeste 0 -- -- 46
2017-09-07 12:00:00 29 6 Sudoeste 11 Oeste 0 -- -- 48
2017-09-07 11:00:00 26.8 3 Sur 12 Nordeste 0 -- -- 53
2017-09-07 10:00:00 22.9 6 Este 9 Este 0 -- -- 68
2017-09-07 09:00:00 18.7 5 Nordeste 9 Nordeste 0 -- -- 83
2017-09-07 08:00:00 17.2 5 Nordeste 8 Norte 0 -- -- 87
2017-09-07 07:00:00 17.7 3 Nordeste 8 Nordeste 0 -- -- 86
2017-09-07 06:00:00 18.2 5 Norte 9 Noroeste 0 -- -- 85
2017-09-07 05:00:00 17.2 3 Noroeste 5 Noroeste 0 -- -- 89
2017-09-07 04:00:00 18.2 3 Sudoeste 5 Oeste 0 -- -- 87
2017-09-07 03:00:00 18.8 5 Noroeste 8 Noroeste 0 -- -- 88
2017-09-07 02:00:00 19.4 4 Oeste 5 Oeste 0 -- -- 88
2017-09-07 01:00:00 20.3 2 Norte 4 Noroeste 0 -- -- 88
2017-09-07 00:00:00 21.7 0 Calma 5 Sudoeste 0 -- -- 84
2017-09-06 23:00:00 23.9 0 Calma 11 Oeste 0 -- -- 82
2017-09-06 22:00:00 24.6 7 Oeste 17 Noroeste 0 -- -- 78
2017-09-06 21:00:00 25 9 Oeste 24 Noroeste 0 -- -- 75
2017-09-06 20:00:00 26.8 14 Noroeste 28 Oeste 0 -- -- 62
2017-09-06 19:00:00 27.8 15 Oeste 28 Noroeste 0 -- -- 61
2017-09-06 18:00:00 28.5 17 Oeste 28 Oeste 0 -- -- 60
2017-09-06 17:00:00 28.5 17 Oeste 23 Oeste 0 -- -- 62
2017-09-06 16:00:00 29.3 15 Oeste 23 Oeste 0 -- -- 55
2017-09-06 15:00:00 30.5 8 Sudoeste 16 Sudoeste 0 -- -- 52
2017-09-06 14:00:00 30.4 10 Sudoeste 14 Sudoeste 0 -- -- 50
2017-09-06 13:00:00 30.1 7 Sudoeste 13 Sudoeste 0 -- -- 52
2017-09-06 12:00:00 29.1 8 Sudoeste 13 Sudoeste 0 -- -- 55
2017-09-06 11:00:00 26.3 5 Nordeste 13 Nordeste 0 -- -- 59
2017-09-06 10:00:00 23 9 Norte 17 Nordeste 0 -- -- 69
2017-09-06 09:00:00 18.8 3 Nordeste 6 Nordeste 0 -- -- 85
2017-09-06 08:00:00 18.3 4 Nordeste 13 Norte 0 -- -- 85
2017-09-06 07:00:00 16.7 5 Norte 6 Norte 0 -- -- 87
2017-09-06 06:00:00 17.3 3 Norte 5 Norte 0 -- -- 87
2017-09-06 05:00:00 18.2 0 Calma 3 Norte 0 -- -- 83
2017-09-06 04:00:00 20.4 2 Sudeste 9 Norte 0 -- -- 76
2017-09-06 03:00:00 21.6 5 Norte 14 Norte 0 -- -- 73
2017-09-06 02:00:00 20.9 6 Norte 12 Norte 0 -- -- 78
2017-09-06 01:00:00 20.9 4 Norte 8 Norte 0 -- -- 77
2017-09-06 00:00:00 21.8 6 Nordeste 9 Nordeste 0 -- -- 76
2017-09-05 23:00:00 21.9 4 Norte 8 Norte 0 -- -- 77
2017-09-05 22:00:00 22.4 3 Norte 10 Noroeste 0 -- -- 76
2017-09-05 21:00:00 24.2 6 Noroeste 17 Noroeste 0 -- -- 72
2017-09-05 20:00:00 25.4 10 Noroeste 22 Oeste 0 -- -- 69
2017-09-05 19:00:00 26.1 14 Noroeste 20 Oeste 0 -- -- 71
2017-09-05 18:00:00 28 12 Oeste 21 Oeste 0 -- -- 65
2017-09-05 17:00:00 28.2 9 Oeste 14 Oeste 0 -- -- 59
2017-09-05 16:00:00 28.6 8 Sudoeste 18 Sudoeste 0 -- -- 57
2017-09-05 15:00:00 27.7 10 Sudoeste 17 Sur 0 -- -- 62
2017-09-05 14:00:00 28.4 9 Sur 19 Sur 0 -- -- 57
2017-09-05 13:00:00 28.9 12 Sur 21 Sur 0 -- -- 55
2017-09-05 12:00:00 27.3 9 Sur 20 Sur 0 -- -- 58
2017-09-05 11:00:00 25.3 7 Nordeste 15 Nordeste 0 -- -- 61
2017-09-05 10:00:00 21.4 9 Norte 19 Nordeste 0 -- -- 74
2017-09-05 09:00:00 18.8 10 Nordeste 19 Nordeste 0 -- -- 84
2017-09-05 08:00:00 18.1 9 Nordeste 19 Norte 0 -- -- 86
2017-09-05 07:00:00 18.5 10 Nordeste 23 Norte 0 -- -- 84
2017-09-05 06:00:00 19.1 13 Norte 31 Noroeste 0 -- -- 82
2017-09-05 05:00:00 19.5 16 Norte 35 Norte 0 -- -- 80
2017-09-05 04:00:00 20 17 Norte 34 Norte 0 -- -- 78
2017-09-05 03:00:00 20.5 15 Norte 31 Norte 0 -- -- 75
2017-09-05 02:00:00 21.5 14 Norte 31 Norte 0 -- -- 71
2017-09-05 01:00:00 22.2 15 Norte 33 Nordeste 0 -- -- 68
2017-09-05 00:00:00 23.2 14 Norte 31 Norte 0 -- -- 65
2017-09-04 23:00:00 24.8 13 Norte 30 Noroeste 0 -- -- 60
2017-09-04 22:00:00 26.3 9 Noroeste 20 Noroeste 0 -- -- 56
2017-09-04 21:00:00 28.5 5 Norte 25 Norte 0 -- -- 49
2017-09-04 20:00:00 30.9 13 Noroeste 32 Noroeste 0 -- -- 44
2017-09-04 19:00:00 30.7 14 Norte 29 Noroeste 0 -- -- 45
2017-09-04 18:00:00 31.2 14 Noroeste 33 Oeste 0 -- -- 53
2017-09-04 17:00:00 27.5 22 Oeste 35 Oeste 0 -- -- 65
2017-09-04 16:00:00 29.3 25 Oeste 36 Oeste 0 -- -- 61
2017-09-04 15:00:00 32.3 14 Norte 30 Norte 0 -- -- 43
2017-09-04 14:00:00 31 13 Norte 33 Nordeste 0 -- -- 47
2017-09-04 13:00:00 29.1 17 Norte 38 Noroeste 0 -- -- 49
2017-09-04 12:00:00 26.9 16 Nordeste 30 Norte 0 -- -- 54
2017-09-04 11:00:00 24.2 14 Norte 29 Norte 0 -- -- 59
2017-09-04 10:00:00 21.6 16 Norte 28 Norte 0 -- -- 65
2017-09-04 09:00:00 19 10 Norte 29 Norte 0 -- -- 70
2017-09-04 08:00:00 18 14 Norte 30 Norte 0 -- -- 69
2017-09-04 07:00:00 18.3 15 Norte 28 Norte 0 -- -- 69
2017-09-04 06:00:00 18.9 13 Norte 30 Norte 0 -- -- 70
2017-09-04 05:00:00 19.6 14 Norte 27 Norte 0 -- -- 67
2017-09-04 04:00:00 20.1 14 Norte 27 Norte 0 -- -- 61
2017-09-04 03:00:00 21.1 14 Norte 30 Norte 0 -- -- 53
2017-09-04 02:00:00 22.2 14 Norte 28 Norte 0 -- -- 47
2017-09-04 01:00:00 23.2 12 Norte 25 Norte 0 -- -- 44
2017-09-04 00:00:00 23.8 13 Norte 23 Norte 0 -- -- 41
2017-09-03 23:00:00 21.7 8 Norte 13 Norte 0 -- -- 65
2017-09-03 22:00:00 23.3 5 Noroeste 19 Noroeste 0 -- -- 76
2017-09-03 21:00:00 24.4 14 Noroeste 28 Noroeste 0 -- -- 72
2017-09-03 20:00:00 25.4 17 Oeste 31 Oeste 0 -- -- 78
2017-09-03 19:00:00 26.1 19 Oeste 33 Oeste 0 -- -- 76
2017-09-03 18:00:00 27.3 19 Oeste 33 Oeste 0 -- -- 70
2017-09-03 17:00:00 28.2 18 Oeste 31 Oeste 0 -- -- 66
2017-09-03 16:00:00 29 15 Oeste 23 Oeste 0 -- -- 60
2017-09-03 15:00:00 29.8 13 Oeste 22 Oeste 0 -- -- 55
2017-09-03 14:00:00 29.8 12 Oeste 19 Oeste 0 -- -- 53
2017-09-03 13:00:00 29.6 11 Oeste 16 Oeste 0 -- -- 51
2017-09-03 12:00:00 29.1 8 Sudoeste 17 Oeste 0 -- -- 50
2017-09-03 11:00:00 27.3 9 Norte 15 Norte 0 -- -- 48
2017-09-03 10:00:00 24.6 6 Norte 15 Norte 0 -- -- 45
2017-09-03 09:00:00 20 6 Norte 10 Norte 0 -- -- 58
2017-09-03 08:00:00 18.7 6 Norte 13 Norte 0 -- -- 68
2017-09-03 07:00:00 19 6 Norte 10 Norte 0 -- -- 82
2017-09-03 06:00:00 20.5 4 Norte 6 Noroeste 0 -- -- 92
2017-09-03 05:00:00 21.9 4 Noroeste 9 Oeste 0 -- -- 89
2017-09-03 04:00:00 23.3 6 Noroeste 11 Oeste 0 -- -- 89
2017-09-03 03:00:00 23.9 4 Oeste 13 Oeste 0 -- -- 84
2017-09-03 02:00:00 24.5 9 Oeste 15 Oeste 0 -- -- 81
2017-09-03 01:00:00 24.7 9 Oeste 13 Oeste 0 -- -- 81
2017-09-03 00:00:00 25.3 7 Noroeste 12 Noroeste 0 -- -- 78
2017-09-02 23:00:00 25.8 9 Noroeste 17 Noroeste 0 -- -- 74
2017-09-02 22:00:00 26.2 10 Noroeste 21 Noroeste 0 -- -- 71
2017-09-02 21:00:00 26.3 9 Oeste 16 Noroeste 0 -- -- 77
2017-09-02 20:00:00 27.8 9 Oeste 19 Sudoeste 0 -- -- 71
2017-09-02 19:00:00 28.9 11 Oeste 22 Oeste 0 -- -- 67
2017-09-02 18:00:00 29.8 15 Oeste 24 Oeste 0 -- -- 62
2017-09-02 17:00:00 30.6 13 Oeste 22 Oeste 0 -- -- 58
2017-09-02 16:00:00 30.9 14 Oeste 22 Oeste 0 -- -- 59
2017-09-02 15:00:00 30.4 13 Oeste 21 Oeste 0 -- -- 58
2017-09-02 14:00:00 30.3 10 Oeste 17 Sudoeste 0 -- -- 59
2017-09-02 13:00:00 31.3 9 Sudoeste 18 Sur 0 -- -- 55
2017-09-02 12:00:00 29.9 11 Sur 18 Sudeste 0 -- -- 58
2017-09-02 11:00:00 27.1 6 Este 15 Sudeste 0 -- -- 67
2017-09-02 10:00:00 23.9 8 Este 13 Este 0 -- -- 77
2017-09-02 09:00:00 19.4 5 Nordeste 10 Nordeste 0 -- -- 96
2017-09-02 08:00:00 17.8 6 Nordeste 9 Nordeste 0 -- -- 96
2017-09-02 07:00:00 18.1 4 Nordeste 8 Este 0 -- -- 94
2017-09-02 06:00:00 19.1 5 Este 10 Este 0 -- -- 94
2017-09-02 05:00:00 19.7 5 Este 8 Este 0 -- -- 93
2017-09-02 04:00:00 22.8 2 Oeste 14 Oeste 0 -- -- 83
2017-09-02 03:00:00 23.4 6 Sudoeste 13 Sudoeste 0 -- -- 86
2017-09-02 02:00:00 23.4 5 Sudoeste 17 Oeste 0 -- -- 87
2017-09-02 01:00:00 23.5 8 Sudoeste 15 Sudoeste 0 -- -- 86
2017-09-02 00:00:00 23.9 9 Sudoeste 19 Oeste 0 -- -- 85
2017-09-01 23:00:00 24.7 13 Oeste 23 Oeste 0 -- -- 77
2017-09-01 22:00:00 24.9 14 Oeste 23 Oeste 0 -- -- 79
2017-09-01 21:00:00 25.1 13 Oeste 23 Oeste 0 -- -- 77
2017-09-01 20:00:00 26.3 14 Oeste 27 Oeste 0 -- -- 73
2017-09-01 19:00:00 27.8 19 Oeste 32 Oeste 0 -- -- 62
2017-09-01 18:00:00 28.8 18 Oeste 31 Oeste 0 -- -- 64
2017-09-01 17:00:00 29.7 15 Oeste 25 Oeste 0 -- -- 57
2017-09-01 16:00:00 30.6 13 Oeste 23 Oeste 0 -- -- 51
2017-09-01 15:00:00 30.2 13 Oeste 23 Oeste 0 -- -- 51
2017-09-01 14:00:00 29.7 12 Oeste 19 Oeste 0 -- -- 52
2017-09-01 13:00:00 29.6 8 Sudoeste 16 Sudoeste 0 -- -- 52
2017-09-01 12:00:00 29 8 Sudoeste 14 Sudoeste 0 -- -- 52
2017-09-01 11:00:00 26.9 3 Nordeste 12 Nordeste 0 -- -- 54
2017-09-01 10:00:00 23.5 7 Nordeste 15 Norte 0 -- -- 62
2017-09-01 09:00:00 19.8 9 Norte 15 Norte 0 -- -- 73
2017-09-01 08:00:00 18.2 7 Norte 12 Norte 0 -- -- 78
2017-09-01 07:00:00 18.3 4 Nordeste 8 Norte 0 -- -- 77
2017-09-01 06:00:00 19.4 5 Norte 9 Nordeste 0 -- -- 73
2017-09-01 05:00:00 20.9 4 Este 10 Nordeste 0 -- -- 68
2017-09-01 04:00:00 22.2 5 Nordeste 21 Norte 0 -- -- 63
2017-09-01 03:00:00 23.9 11 Norte 22 Norte 0 -- -- 58
2017-09-01 02:00:00 24.5 12 Norte 24 Norte 0 -- -- 56
2017-09-01 01:00:00 24.6 12 Norte 23 Norte 0 -- -- 56
2017-09-01 00:00:00 22.7 9 Norte 15 Norte 0 -- -- 64
2017-08-31 23:00:00 24.8 3 Noroeste 16 Oeste 0 -- -- 68
2017-08-31 22:00:00 25.8 10 Noroeste 27 Noroeste 0 -- -- 66
2017-08-31 21:00:00 26.5 13 Noroeste 30 Noroeste 0 -- -- 58
2017-08-31 20:00:00 27.4 18 Noroeste 32 Noroeste 0 -- -- 56
2017-08-31 19:00:00 28.7 20 Noroeste 31 Noroeste 0 -- -- 54
2017-08-31 18:00:00 31.2 14 Oeste 25 Oeste 0 -- -- 41
2017-08-31 17:00:00 29.8 16 Oeste 25 Oeste 0 -- -- 50
2017-08-31 16:00:00 30 15 Oeste 23 Oeste 0 -- -- 48
2017-08-31 15:00:00 29.7 14 Oeste 21 Oeste 0 -- -- 49
2017-08-31 14:00:00 28.9 14 Oeste 31 Este 0 -- -- 54
2017-08-31 13:00:00 29.8 8 Sudeste 19 Este 0 -- -- 43
2017-08-31 12:00:00 27.5 9 Nordeste 17 Nordeste 0 -- -- 49
2017-08-31 11:00:00 25 7 Este 18 Sudeste 0 -- -- 58
2017-08-31 10:00:00 22.2 6 Nordeste 13 Norte 0 -- -- 72
2017-08-31 09:00:00 18.9 3 Nordeste 9 Nordeste 0 -- -- 87
2017-08-31 08:00:00 18 6 Nordeste 14 Nordeste 0 -- -- 89
2017-08-31 07:00:00 18.2 7 Norte 13 Norte 0 -- -- 89
2017-08-31 06:00:00 18 5 Nordeste 9 Nordeste 0 -- -- 88
2017-08-31 05:00:00 18.9 6 Nordeste 13 Norte 0 -- -- 85
2017-08-31 04:00:00 19.8 8 Norte 18 Norte 0 -- -- 81
2017-08-31 03:00:00 20.2 9 Norte 20 Norte 0 -- -- 80
2017-08-31 02:00:00 20.6 4 Norte 10 Noroeste 0 -- -- 85
2017-08-31 01:00:00 22.4 4 Noroeste 17 Oeste 0 -- -- 84
2017-08-31 00:00:00 23 11 Oeste 23 Noroeste 0 -- -- 78
2017-08-30 23:00:00 22.3 8 Noroeste 17 Noroeste 0 -- -- 70
2017-08-30 22:00:00 22.6 8 Noroeste 22 Oeste 0 -- -- 70
2017-08-30 21:00:00 23.2 11 Noroeste 28 Noroeste 0 -- -- 73
2017-08-30 20:00:00 23.9 17 Noroeste 31 Oeste 0 -- -- 76
2017-08-30 19:00:00 25.3 18 Oeste 29 Oeste 0 -- -- 70
2017-08-30 18:00:00 25.7 14 Oeste 25 Oeste 0 -- -- 67
2017-08-30 17:00:00 26 15 Oeste 24 Oeste 0 -- -- 64
2017-08-30 16:00:00 25.8 15 Oeste 23 Oeste 0 -- -- 62
2017-08-30 15:00:00 25.8 14 Oeste 22 Sudoeste 0 -- -- 63
2017-08-30 14:00:00 25.3 12 Sudoeste 22 Sudoeste 0 -- -- 66
2017-08-30 13:00:00 25.6 11 Sudoeste 19 Sur 0 -- -- 67
2017-08-30 12:00:00 25 10 Sudoeste 19 Sur 0 -- -- 67
2017-08-30 11:00:00 23.1 9 Sudeste 18 Sudeste 0 -- -- 73
2017-08-30 10:00:00 20.6 7 Este 15 Este 0 -- -- 83
2017-08-30 09:00:00 17.2 7 Nordeste 13 Nordeste 0 -- -- 97
2017-08-30 08:00:00 16.3 8 Este 14 Nordeste 0 -- -- 97
2017-08-30 07:00:00 16.4 8 Este 15 Este 0 -- -- 96
2017-08-30 06:00:00 16.8 6 Nordeste 12 Nordeste 0 -- -- 96
2017-08-30 05:00:00 17.3 5 Nordeste 11 Este 0.2 -- -- 95
2017-08-30 04:00:00 16.9 6 Este 10 Nordeste 0 -- -- 93
2017-08-30 03:00:00 17.1 5 Nordeste 10 Nordeste 0 -- -- 91
2017-08-30 02:00:00 17.2 5 Nordeste 10 Nordeste 0 -- -- 87
2017-08-30 01:00:00 17.8 5 Nordeste 12 Norte 0 -- -- 83
2017-08-30 00:00:00 18.2 5 Este 9 Nordeste 0 -- -- 82
2017-08-29 23:00:00 19.7 3 Este 5 Este 0 -- -- 77
2017-08-29 22:00:00 21.7 4 Nordeste 22 Oeste 0 -- -- 71
2017-08-29 21:00:00 22.8 10 Oeste 22 Noroeste 0 -- -- 72
2017-08-29 20:00:00 23.1 11 Oeste 26 Oeste 0 -- -- 71
2017-08-29 19:00:00 23.9 18 Oeste 31 Oeste 0 -- -- 70
2017-08-29 18:00:00 23.8 18 Oeste 31 Oeste 0 -- -- 68
2017-08-29 17:00:00 24.9 18 Oeste 31 Oeste 0 -- -- 63
2017-08-29 16:00:00 24.7 21 Oeste 33 Oeste 0 -- -- 66
2017-08-29 15:00:00 25 18 Oeste 30 Oeste 0 -- -- 62
2017-08-29 14:00:00 24.8 17 Oeste 27 Oeste 0 -- -- 63
2017-08-29 13:00:00 25 13 Oeste 23 Oeste 0 -- -- 61
2017-08-29 12:00:00 23.7 10 Oeste 16 Noroeste 0 -- -- 63
2017-08-29 11:00:00 22.9 5 Nordeste 12 Este 0 -- -- 66
2017-08-29 10:00:00 20.7 6 Norte 16 Nordeste 0 -- -- 77
2017-08-29 09:00:00 17.3 5 Nordeste 10 Norte 0 -- -- 92
2017-08-29 08:00:00 16.5 2 Nordeste 10 Este 0 -- -- 91
2017-08-29 07:00:00 17.8 5 Norte 10 Nordeste 0 -- -- 87
2017-08-29 06:00:00 18 6 Norte 15 Norte 0 -- -- 87
2017-08-29 05:00:00 18.1 7 Norte 12 Norte 0 -- -- 86
2017-08-29 04:00:00 18.8 5 Norte 12 Norte 0 -- -- 82
2017-08-29 03:00:00 17.7 4 Nordeste 7 Nordeste 0 -- -- 85
2017-08-29 02:00:00 18.5 4 Nordeste 7 Noroeste 0 -- -- 86
2017-08-29 01:00:00 20.3 4 Noroeste 11 Noroeste 0 -- -- 84
2017-08-29 00:00:00 21.4 6 Noroeste 25 Oeste 0 -- -- 82
2017-08-28 23:00:00 21.7 14 Noroeste 27 Noroeste 0 -- -- 83
2017-08-28 22:00:00 21.7 19 Oeste 32 Oeste 0 -- -- 83
2017-08-28 21:00:00 21.8 19 Oeste 33 Oeste 0 -- -- 80
2017-08-28 20:00:00 22.5 22 Oeste 37 Oeste 0 -- -- 74
2017-08-28 19:00:00 23.2 18 Oeste 30 Oeste 0 -- -- 71
2017-08-28 18:00:00 23.4 19 Oeste 32 Oeste 0 -- -- 72
2017-08-28 17:00:00 24.3 21 Oeste 33 Oeste 0 -- -- 70
2017-08-28 16:00:00 25 18 Oeste 31 Oeste 0 -- -- 68
2017-08-28 15:00:00 24.7 17 Oeste 30 Sudoeste 0 -- -- 68
2017-08-28 14:00:00 24.7 17 Oeste 27 Oeste 0 -- -- 70
2017-08-28 13:00:00 24.9 12 Sudoeste 21 Oeste 0 -- -- 67
2017-08-28 12:00:00 24 9 Sudoeste 14 Sudoeste 0 -- -- 69
2017-08-28 11:00:00 22.3 6 Sur 12 Sur 0 -- -- 69
2017-08-28 10:00:00 21.4 3 Nordeste 7 Este 0 -- -- 74
2017-08-28 09:00:00 16 4 Nordeste 7 Este 0 -- -- 95
2017-08-28 08:00:00 14.9 4 Nordeste 6 Este 0 -- -- 93
2017-08-28 07:00:00 15.6 5 Nordeste 8 Nordeste 0 -- -- 91
2017-08-28 06:00:00 16.4 5 Nordeste 10 Norte 0 -- -- 89
2017-08-28 05:00:00 17.3 2 Norte 7 Noroeste 0 -- -- 85
2017-08-28 04:00:00 17.9 4 Noroeste 9 Noroeste 0 -- -- 83
2017-08-28 03:00:00 17.8 5 Norte 9 Noroeste 0 -- -- 80
2017-08-28 02:00:00 19.2 4 Noroeste 9 Noroeste 0 -- -- 72
2017-08-28 01:00:00 20.3 4 Norte 10 Norte 0 -- -- 67
2017-08-28 00:00:00 21.4 5 Norte 11 Norte 0 -- -- 65
2017-08-27 23:00:00 23 6 Noroeste 24 Noroeste 0 -- -- 69
2017-08-27 22:00:00 23.4 14 Noroeste 31 Noroeste 0 -- -- 77
2017-08-27 21:00:00 23.4 20 Oeste 30 Noroeste 0 -- -- 78
2017-08-27 20:00:00 24.2 17 Oeste 28 Oeste 0 -- -- 76
2017-08-27 19:00:00 25.4 20 Oeste 32 Oeste 0 -- -- 71
2017-08-27 18:00:00 25.9 19 Oeste 31 Oeste 0 -- -- 69
2017-08-27 17:00:00 26.6 19 Oeste 31 Oeste 0 -- -- 68
2017-08-27 16:00:00 26.9 17 Oeste 26 Oeste 0 -- -- 68
2017-08-27 15:00:00 28.3 11 Sudoeste 22 Sudoeste 0 -- -- 56
2017-08-27 14:00:00 28.6 9 Sudoeste 16 Sudoeste 0 -- -- 55
2017-08-27 13:00:00 28 8 Sudoeste 14 Sudoeste 0 -- -- 57
2017-08-27 12:00:00 27 9 Sudoeste 17 Noroeste 0 -- -- 61
2017-08-27 11:00:00 24.8 8 Oeste 17 Este 0 -- -- 65
2017-08-27 10:00:00 23.2 5 Nordeste 21 Norte 0 -- -- 68
2017-08-27 09:00:00 21.7 9 Norte 23 Norte 0 -- -- 74
2017-08-27 08:00:00 21.5 7 Noroeste 19 Noroeste 0 -- -- 70
2017-08-27 07:00:00 21.5 7 Nordeste 21 Este 0 -- -- 67
2017-08-27 06:00:00 21.4 9 Nordeste 21 Norte 0 -- -- 68
2017-08-27 05:00:00 22.1 8 Nordeste 13 Nordeste 0 -- -- 63
2017-08-27 04:00:00 23 3 Norte 17 Norte 0 -- -- 59
2017-08-27 03:00:00 23.6 3 Nordeste 13 Noroeste 0 -- -- 72
2017-08-27 02:00:00 24.3 7 Oeste 19 Oeste 0 -- -- 85
2017-08-27 01:00:00 24.5 4 Oeste 15 Noroeste 0 -- -- 79
2017-08-27 00:00:00 24.2 6 Sudeste 13 Sudeste 0 -- -- 74
2017-08-26 23:00:00 24 2 Nordeste 8 Norte 0 -- -- 76
2017-08-26 22:00:00 24.6 2 Norte 12 Noroeste 0 -- -- 74
2017-08-26 21:00:00 25.3 7 Oeste 13 Oeste 0 -- -- 79
2017-08-26 20:00:00 26.4 9 Oeste 33 Noroeste 0 -- -- 73
2017-08-26 19:00:00 27.2 21 Noroeste 42 Oeste 0 -- -- 66
2017-08-26 18:00:00 27.1 9 Sur 34 Noroeste 0 -- -- 66
2017-08-26 17:00:00 29.3 19 Noroeste 41 Oeste 0 -- -- 56
2017-08-26 16:00:00 31 14 Sudeste 29 Sur 0 -- -- 58
2017-08-26 15:00:00 28.7 12 Sudeste 24 Sudeste 0 -- -- 61
2017-08-26 14:00:00 28.6 8 Sudoeste 18 Sur 0 -- -- 63
2017-08-26 13:00:00 29 10 Sur 19 Sur 0 -- -- 66
2017-08-26 12:00:00 30 8 Sur 17 Norte 0 -- -- 53
2017-08-26 11:00:00 26.7 10 Sudeste 19 Sudeste 0 -- -- 60
2017-08-26 10:00:00 25.3 5 Este 12 Este 0 -- -- 57
2017-08-26 09:00:00 21.2 6 Nordeste 12 Nordeste 0 -- -- 60
2017-08-26 08:00:00 20.6 5 Nordeste 15 Nordeste 0 -- -- 60
2017-08-26 07:00:00 20.8 4 Nordeste 16 Noroeste 0 -- -- 66
2017-08-26 06:00:00 20.8 3 Norte 19 Sudeste 0 -- -- 75
2017-08-26 05:00:00 19.7 5 Nordeste 9 Nordeste 0 -- -- 77
2017-08-26 04:00:00 19 2 Nordeste 8 Noroeste 0 -- -- 82
2017-08-26 03:00:00 17.7 5 Nordeste 6 Nordeste 0 -- -- 81
2017-08-26 02:00:00 18 3 Este 8 Sudeste 0 -- -- 79
2017-08-26 01:00:00 18.9 4 Este 10 Noroeste 0 -- -- 77
2017-08-26 00:00:00 19.4 6 Noroeste 12 Noroeste 0 -- -- 80
2017-08-25 23:00:00 20.9 3 Norte 8 Oeste 0 -- -- 72
2017-08-25 22:00:00 24.3 3 Oeste 15 Oeste 0 -- -- 63
2017-08-25 21:00:00 26.7 7 Noroeste 16 Noroeste 0 -- -- 56
2017-08-25 20:00:00 27.6 8 Noroeste 20 Noroeste 0 -- -- 56
2017-08-25 19:00:00 28.5 12 Oeste 22 Oeste 0 -- -- 54
2017-08-25 18:00:00 27.8 10 Oeste 17 Oeste 0 -- -- 64
2017-08-25 17:00:00 28.2 10 Sudoeste 15 Sudoeste 0 -- -- 61
2017-08-25 16:00:00 29.4 8 Sudoeste 14 Oeste 0 -- -- 51
2017-08-25 15:00:00 29.3 8 Sudoeste 18 Sur 0 -- -- 52
2017-08-25 14:00:00 28.4 9 Sudoeste 15 Sudoeste 0 -- -- 52
2017-08-25 13:00:00 28.2 6 Sudoeste 18 Oeste 0 -- -- 52
2017-08-25 12:00:00 28.3 6 Sur 13 Sudeste 0 -- -- 50
2017-08-25 11:00:00 25 4 Este 12 Norte 0 -- -- 52
2017-08-25 10:00:00 23.6 5 Norte 14 Norte 0 -- -- 55
2017-08-25 09:00:00 19.5 5 Norte 10 Nordeste 0 -- -- 70
2017-08-25 08:00:00 18.6 5 Nordeste 12 Nordeste 0 -- -- 73
2017-08-25 07:00:00 19.5 9 Nordeste 13 Nordeste 0 -- -- 69
2017-08-25 06:00:00 16.8 5 Nordeste 9 Norte 0 -- -- 83
2017-08-25 05:00:00 17.6 4 Este 8 Sudeste 0 -- -- 78
2017-08-25 04:00:00 18.6 5 Este 9 Nordeste 0 -- -- 77
2017-08-25 03:00:00 19.2 0 Calma 6 Nordeste 0 -- -- 81
2017-08-25 02:00:00 20.1 5 Nordeste 8 Nordeste 0 -- -- 84
2017-08-25 01:00:00 21.1 3 Nordeste 12 Noroeste 0 -- -- 83
2017-08-25 00:00:00 22.4 2 Este 6 Este 0 -- -- 82
2017-08-24 23:00:00 24.5 3 Oeste 9 Oeste 0 -- -- 80
2017-08-24 22:00:00 25.1 6 Oeste 17 Noroeste 0 -- -- 77
2017-08-24 21:00:00 25.6 10 Noroeste 19 Noroeste 0 -- -- 70
2017-08-24 20:00:00 26.8 11 Oeste 24 Oeste 0 -- -- 68
2017-08-24 19:00:00 27.7 13 Oeste 23 Noroeste 0 -- -- 65
2017-08-24 18:00:00 29.3 17 Oeste 25 Noroeste 0 -- -- 52
2017-08-24 17:00:00 28.3 16 Oeste 27 Oeste 0 -- -- 57
2017-08-24 16:00:00 29.3 11 Sudoeste 19 Sur 0 -- -- 55
2017-08-24 15:00:00 29.9 12 Sur 18 Sudoeste 0 -- -- 53
2017-08-24 14:00:00 30.7 9 Sudoeste 17 Sur 0 -- -- 44
2017-08-24 13:00:00 30 8 Sudoeste 14 Sudoeste 0 -- -- 47
2017-08-24 12:00:00 28.8 6 Sudoeste 13 Sur 0 -- -- 49
2017-08-24 11:00:00 26.7 5 Nordeste 14 Norte 0 -- -- 51
2017-08-24 10:00:00 23.5 8 Nordeste 21 Norte 0 -- -- 59
2017-08-24 09:00:00 19.5 9 Norte 17 Norte 0 -- -- 71
2017-08-24 08:00:00 18.9 6 Nordeste 19 Norte 0 -- -- 71
2017-08-24 07:00:00 17.5 8 Norte 13 Norte 0 -- -- 75
2017-08-24 06:00:00 17.3 5 Norte 9 Norte 0 -- -- 76
2017-08-24 05:00:00 19 3 Nordeste 10 Norte 0 -- -- 70
2017-08-24 04:00:00 19.4 4 Nordeste 8 Nordeste 0 -- -- 70
2017-08-24 03:00:00 20.8 3 Este 10 Norte 0 -- -- 68
2017-08-24 02:00:00 22 6 Norte 12 Noroeste 0 -- -- 63
2017-08-24 01:00:00 21.8 4 Noroeste 5 Noroeste 0 -- -- 89
2017-08-24 00:00:00 24.3 3 Oeste 12 Noroeste 0 -- -- 88
2017-08-23 23:00:00 24.9 7 Oeste 17 Noroeste 0 -- -- 84
2017-08-23 22:00:00 25.2 9 Oeste 16 Oeste 0 -- -- 79
2017-08-23 21:00:00 25.9 9 Oeste 21 Oeste 0 -- -- 74
2017-08-23 20:00:00 27.2 13 Oeste 24 Oeste 0 -- -- 64
2017-08-23 19:00:00 28.5 15 Oeste 26 Oeste 0 -- -- 60
2017-08-23 18:00:00 29.4 17 Oeste 28 Noroeste 0 -- -- 51
2017-08-23 17:00:00 30 20 Oeste 29 Noroeste 0 -- -- 47
2017-08-23 16:00:00 29.9 17 Oeste 23 Oeste 0 -- -- 51
2017-08-23 15:00:00 30 13 Oeste 21 Oeste 0 -- -- 47
2017-08-23 14:00:00 29.8 12 Oeste 17 Sudoeste 0 -- -- 54
2017-08-23 13:00:00 29.6 9 Sudoeste 14 Sudoeste 0 -- -- 55
2017-08-23 12:00:00 29.6 7 Sudoeste 12 Sudoeste 0 -- -- 53
2017-08-23 11:00:00 28.4 6 Sur 10 Sur 0 -- -- 56
2017-08-23 10:00:00 25.8 7 Nordeste 12 Nordeste 0 -- -- 64
2017-08-23 09:00:00 21.1 4 Norte 8 Norte 0 -- -- 80
2017-08-23 08:00:00 18.3 5 Norte 8 Norte 0 -- -- 86
2017-08-23 07:00:00 19.8 2 Sur 4 Sudoeste 0 -- -- 80
2017-08-23 06:00:00 20.8 2 Sudeste 8 Norte 0 -- -- 77
2017-08-23 05:00:00 21.4 5 Norte 11 Noroeste 0 -- -- 75
2017-08-23 04:00:00 21.9 4 Norte 7 Norte 0 -- -- 73
2017-08-23 03:00:00 23.3 0 Calma 10 Norte 0 -- -- 69
2017-08-23 02:00:00 24.5 5 Noroeste 14 Noroeste 0 -- -- 65
2017-08-23 01:00:00 25.5 8 Noroeste 16 Noroeste 0 -- -- 63
2017-08-23 00:00:00 25.8 4 Noroeste 22 Noroeste 0 -- -- 64
2017-08-22 23:00:00 26.6 10 Noroeste 21 Noroeste 0 -- -- 63
2017-08-22 22:00:00 26.7 8 Noroeste 21 Noroeste 0 -- -- 60
2017-08-22 21:00:00 27 11 Noroeste 23 Noroeste 0 -- -- 63
2017-08-22 20:00:00 27.8 14 Oeste 24 Oeste 0 -- -- 67
2017-08-22 19:00:00 29.4 13 Oeste 27 Oeste 0 -- -- 56
2017-08-22 18:00:00 29.8 16 Oeste 28 Oeste 0 -- -- 53
2017-08-22 17:00:00 29.9 16 Oeste 24 Oeste 0 -- -- 52
2017-08-22 16:00:00 30.1 16 Oeste 22 Oeste 0 -- -- 51
2017-08-22 15:00:00 30.1 15 Oeste 23 Oeste 0 -- -- 49
2017-08-22 14:00:00 29.7 13 Oeste 19 Oeste 0 -- -- 51
2017-08-22 13:00:00 29.7 10 Sudoeste 15 Sudoeste 0 -- -- 52
2017-08-22 12:00:00 29.3 5 Sur 14 Sur 0 -- -- 54
2017-08-22 11:00:00 27.9 4 Sudeste 11 Sudeste 0 -- -- 60
2017-08-22 10:00:00 24.9 6 Nordeste 10 Nordeste 0 -- -- 76
2017-08-22 09:00:00 19.5 4 Nordeste 8 Nordeste 0 -- -- 98
2017-08-22 08:00:00 17.7 4 Nordeste 7 Nordeste 0 -- -- 97
2017-08-22 07:00:00 18.5 5 Nordeste 9 Este 0 -- -- 97
2017-08-22 06:00:00 18.8 5 Nordeste 8 Nordeste 0 -- -- 97
2017-08-22 05:00:00 19.2 5 Nordeste 9 Norte 0 -- -- 97
2017-08-22 04:00:00 19.3 4 Norte 8 Norte 0 -- -- 96
2017-08-22 03:00:00 19.8 5 Norte 8 Norte 0 -- -- 95
2017-08-22 02:00:00 20.6 4 Norte 7 Noroeste 0 -- -- 94
2017-08-22 01:00:00 21 4 Norte 8 Noroeste 0 -- -- 92
2017-08-22 00:00:00 22.5 4 Noroeste 8 Noroeste 0 -- -- 90